sensor_id;sensor_type;location;lat;lon;timestamp;P1;durP1;ratioP1;P2;durP2;ratioP2
26696;SDS011;14312;52.614;13.496;2023-07-13T00:02:17;1.33;;;1.20;;
26696;SDS011;14312;52.614;13.496;2023-07-13T00:05:03;1.40;;;1.30;;
26696;SDS011;14312;52.614;13.496;2023-07-13T00:07:51;1.75;;;1.40;;
26696;SDS011;14312;52.614;13.496;2023-07-13T00:10:41;1.52;;;1.27;;
26696;SDS011;14312;52.614;13.496;2023-07-13T00:13:27;1.30;;;1.20;;
26696;SDS011;14312;52.614;13.496;2023-07-13T00:16:14;1.70;;;1.60;;
26696;SDS011;14312;52.614;13.496;2023-07-13T00:19:00;1.88;;;1.38;;
26696;SDS011;14312;52.614;13.496;2023-07-13T00:21:46;1.40;;;1.30;;
26696;SDS011;14312;52.614;13.496;2023-07-13T00:24:32;1.55;;;1.40;;
26696;SDS011;14312;52.614;13.496;2023-07-13T00:27:18;1.40;;;1.30;;
26696;SDS011;14312;52.614;13.496;2023-07-13T00:30:04;2.13;;;1.50;;
26696;SDS011;14312;52.614;13.496;2023-07-13T00:32:51;1.40;;;1.30;;
26696;SDS011;14312;52.614;13.496;2023-07-13T00:35:37;1.40;;;1.30;;
26696;SDS011;14312;52.614;13.496;2023-07-13T00:38:25;1.50;;;1.40;;
26696;SDS011;14312;52.614;13.496;2023-07-13T00:41:11;2.20;;;1.30;;
26696;SDS011;14312;52.614;13.496;2023-07-13T00:43:57;2.17;;;1.30;;
26696;SDS011;14312;52.614;13.496;2023-07-13T00:46:42;1.52;;;1.20;;
26696;SDS011;14312;52.614;13.496;2023-07-13T00:49:29;1.48;;;1.38;;
26696;SDS011;14312;52.614;13.496;2023-07-13T00:52:17;1.90;;;1.50;;
26696;SDS011;14312;52.614;13.496;2023-07-13T00:55:03;1.50;;;1.40;;
26696;SDS011;14312;52.614;13.496;2023-07-13T00:57:50;1.73;;;1.48;;
26696;SDS011;14312;52.614;13.496;2023-07-13T01:00:36;1.73;;;1.50;;
26696;SDS011;14312;52.614;13.496;2023-07-13T01:03:23;1.92;;;1.40;;
26696;SDS011;14312;52.614;13.496;2023-07-13T01:06:09;1.92;;;1.35;;
26696;SDS011;14312;52.614;13.496;2023-07-13T01:08:56;1.42;;;1.33;;
26696;SDS011;14312;52.614;13.496;2023-07-13T01:11:43;1.45;;;1.35;;
26696;SDS011;14312;52.614;13.496;2023-07-13T01:14:30;2.00;;;1.40;;
26696;SDS011;14312;52.614;13.496;2023-07-13T01:17:16;2.03;;;1.42;;
26696;SDS011;14312;52.614;13.496;2023-07-13T01:20:03;1.50;;;1.40;;
26696;SDS011;14312;52.614;13.496;2023-07-13T01:22:50;2.10;;;1.60;;
26696;SDS011;14312;52.614;13.496;2023-07-13T01:25:36;1.67;;;1.48;;
26696;SDS011;14312;52.614;13.496;2023-07-13T01:28:24;1.75;;;1.48;;
26696;SDS011;14312;52.614;13.496;2023-07-13T01:31:12;1.45;;;1.35;;
26696;SDS011;14312;52.614;13.496;2023-07-13T01:33:58;1.50;;;1.40;;
26696;SDS011;14312;52.614;13.496;2023-07-13T01:36:44;1.77;;;1.27;;
26696;SDS011;14312;52.614;13.496;2023-07-13T01:39:30;2.40;;;1.80;;
26696;SDS011;14312;52.614;13.496;2023-07-13T01:42:17;1.42;;;1.33;;
26696;SDS011;14312;52.614;13.496;2023-07-13T01:45:03;1.45;;;1.35;;
26696;SDS011;14312;52.614;13.496;2023-07-13T01:47:50;1.30;;;1.20;;
26696;SDS011;14312;52.614;13.496;2023-07-13T01:50:36;1.70;;;1.33;;
26696;SDS011;14312;52.614;13.496;2023-07-13T01:53:22;1.77;;;1.48;;
26696;SDS011;14312;52.614;13.496;2023-07-13T01:56:08;1.55;;;1.40;;
26696;SDS011;14312;52.614;13.496;2023-07-13T01:58:54;1.50;;;1.40;;
26696;SDS011;14312;52.614;13.496;2023-07-13T02:01:40;1.85;;;1.35;;
26696;SDS011;14312;52.614;13.496;2023-07-13T02:04:26;1.40;;;1.30;;
26696;SDS011;14312;52.614;13.496;2023-07-13T02:07:12;1.92;;;1.60;;
26696;SDS011;14312;52.614;13.496;2023-07-13T02:09:58;1.40;;;1.30;;
26696;SDS011;14312;52.614;13.496;2023-07-13T02:12:44;1.63;;;1.30;;
26696;SDS011;14312;52.614;13.496;2023-07-13T02:15:30;1.70;;;1.60;;
26696;SDS011;14312;52.614;13.496;2023-07-13T02:18:16;2.03;;;1.33;;
26696;SDS011;14312;52.614;13.496;2023-07-13T02:21:02;2.13;;;1.45;;
26696;SDS011;14312;52.614;13.496;2023-07-13T02:23:49;2.58;;;1.40;;
26696;SDS011;14312;52.614;13.496;2023-07-13T02:26:35;2.00;;;1.67;;
26696;SDS011;14312;52.614;13.496;2023-07-13T02:29:21;2.40;;;1.55;;
26696;SDS011;14312;52.614;13.496;2023-07-13T02:32:07;1.77;;;1.67;;
26696;SDS011;14312;52.614;13.496;2023-07-13T02:34:54;2.28;;;1.60;;
26696;SDS011;14312;52.614;13.496;2023-07-13T02:37:40;1.63;;;1.52;;
26696;SDS011;14312;52.614;13.496;2023-07-13T02:40:26;1.80;;;1.65;;
26696;SDS011;14312;52.614;13.496;2023-07-13T02:43:12;1.73;;;1.63;;
26696;SDS011;14312;52.614;13.496;2023-07-13T02:45:58;1.63;;;1.48;;
26696;SDS011;14312;52.614;13.496;2023-07-13T02:48:49;2.08;;;1.70;;
26696;SDS011;14312;52.614;13.496;2023-07-13T02:51:35;1.70;;;1.60;;
26696;SDS011;14312;52.614;13.496;2023-07-13T02:54:21;2.17;;;1.70;;
26696;SDS011;14312;52.614;13.496;2023-07-13T02:57:07;2.30;;;2.10;;
26696;SDS011;14312;52.614;13.496;2023-07-13T02:59:53;1.70;;;1.60;;
26696;SDS011;14312;52.614;13.496;2023-07-13T03:02:39;1.88;;;1.75;;
26696;SDS011;14312;52.614;13.496;2023-07-13T03:05:25;1.70;;;1.60;;
26696;SDS011;14312;52.614;13.496;2023-07-13T03:08:11;1.67;;;1.58;;
26696;SDS011;14312;52.614;13.496;2023-07-13T03:11:14;2.10;;;1.58;;
26696;SDS011;14312;52.614;13.496;2023-07-13T03:14:01;3.38;;;1.83;;
26696;SDS011;14312;52.614;13.496;2023-07-13T03:16:47;2.92;;;1.90;;
26696;SDS011;14312;52.614;13.496;2023-07-13T03:19:33;2.25;;;1.90;;
26696;SDS011;14312;52.614;13.496;2023-07-13T03:22:19;1.85;;;1.65;;
26696;SDS011;14312;52.614;13.496;2023-07-13T03:25:05;1.80;;;1.65;;
26696;SDS011;14312;52.614;13.496;2023-07-13T03:27:52;2.25;;;1.90;;
26696;SDS011;14312;52.614;13.496;2023-07-13T03:30:37;1.60;;;1.50;;
26696;SDS011;14312;52.614;13.496;2023-07-13T03:33:23;2.00;;;1.80;;
26696;SDS011;14312;52.614;13.496;2023-07-13T03:36:11;2.00;;;1.60;;
26696;SDS011;14312;52.614;13.496;2023-07-13T03:39:00;2.40;;;1.60;;
26696;SDS011;14312;52.614;13.496;2023-07-13T03:41:48;2.50;;;1.83;;
26696;SDS011;14312;52.614;13.496;2023-07-13T03:44:35;3.75;;;2.10;;
26696;SDS011;14312;52.614;13.496;2023-07-13T03:47:21;2.88;;;2.15;;
26696;SDS011;14312;52.614;13.496;2023-07-13T03:50:07;2.67;;;2.20;;
26696;SDS011;14312;52.614;13.496;2023-07-13T03:52:53;2.25;;;1.73;;
26696;SDS011;14312;52.614;13.496;2023-07-13T03:55:41;2.20;;;2.00;;
26696;SDS011;14312;52.614;13.496;2023-07-13T03:58:29;2.08;;;1.73;;
26696;SDS011;14312;52.614;13.496;2023-07-13T04:01:23;2.42;;;2.10;;
26696;SDS011;14312;52.614;13.496;2023-07-13T04:04:10;1.90;;;1.80;;
26696;SDS011;14312;52.614;13.496;2023-07-13T04:06:59;3.72;;;2.15;;
26696;SDS011;14312;52.614;13.496;2023-07-13T04:09:45;3.58;;;2.28;;
26696;SDS011;14312;52.614;13.496;2023-07-13T04:12:31;2.08;;;1.88;;
26696;SDS011;14312;52.614;13.496;2023-07-13T04:15:16;2.40;;;2.00;;
26696;SDS011;14312;52.614;13.496;2023-07-13T04:18:03;2.60;;;2.17;;
26696;SDS011;14312;52.614;13.496;2023-07-13T04:20:49;2.47;;;1.70;;
26696;SDS011;14312;52.614;13.496;2023-07-13T04:23:36;2.85;;;1.80;;
26696;SDS011;14312;52.614;13.496;2023-07-13T04:26:23;2.08;;;1.83;;
26696;SDS011;14312;52.614;13.496;2023-07-13T04:29:09;1.88;;;1.77;;
26696;SDS011;14312;52.614;13.496;2023-07-13T04:31:55;1.90;;;1.65;;
26696;SDS011;14312;52.614;13.496;2023-07-13T04:34:41;1.83;;;1.60;;
26696;SDS011;14312;52.614;13.496;2023-07-13T04:37:27;2.30;;;1.80;;
26696;SDS011;14312;52.614;13.496;2023-07-13T04:40:12;3.05;;;2.00;;
26696;SDS011;14312;52.614;13.496;2023-07-13T04:42:58;1.83;;;1.70;;
26696;SDS011;14312;52.614;13.496;2023-07-13T04:45:45;1.95;;;1.67;;
26696;SDS011;14312;52.614;13.496;2023-07-13T04:48:31;1.55;;;1.45;;
26696;SDS011;14312;52.614;13.496;2023-07-13T04:51:17;2.85;;;1.80;;
26696;SDS011;14312;52.614;13.496;2023-07-13T04:54:03;2.05;;;1.70;;
26696;SDS011;14312;52.614;13.496;2023-07-13T04:56:50;1.85;;;1.70;;
26696;SDS011;14312;52.614;13.496;2023-07-13T04:59:36;1.90;;;1.77;;
26696;SDS011;14312;52.614;13.496;2023-07-13T05:02:22;1.88;;;1.73;;
26696;SDS011;14312;52.614;13.496;2023-07-13T05:05:08;1.88;;;1.60;;
26696;SDS011;14312;52.614;13.496;2023-07-13T05:07:54;1.50;;;1.40;;
26696;SDS011;14312;52.614;13.496;2023-07-13T05:10:40;2.08;;;1.88;;
26696;SDS011;14312;52.614;13.496;2023-07-13T05:13:26;1.75;;;1.52;;
26696;SDS011;14312;52.614;13.496;2023-07-13T05:16:12;2.50;;;1.80;;
26696;SDS011;14312;52.614;13.496;2023-07-13T05:18:58;2.50;;;2.17;;
26696;SDS011;14312;52.614;13.496;2023-07-13T05:21:44;2.50;;;2.13;;
26696;SDS011;14312;52.614;13.496;2023-07-13T05:24:30;3.88;;;2.10;;
26696;SDS011;14312;52.614;13.496;2023-07-13T05:27:15;2.95;;;2.50;;
26696;SDS011;14312;52.614;13.496;2023-07-13T05:30:02;2.78;;;2.50;;
26696;SDS011;14312;52.614;13.496;2023-07-13T05:32:49;2.58;;;2.28;;
26696;SDS011;14312;52.614;13.496;2023-07-13T05:35:35;3.08;;;2.50;;
26696;SDS011;14312;52.614;13.496;2023-07-13T05:38:21;2.45;;;2.20;;
26696;SDS011;14312;52.614;13.496;2023-07-13T05:41:07;2.50;;;2.30;;
26696;SDS011;14312;52.614;13.496;2023-07-13T05:43:53;2.45;;;1.85;;
26696;SDS011;14312;52.614;13.496;2023-07-13T05:46:39;2.75;;;2.30;;
26696;SDS011;14312;52.614;13.496;2023-07-13T05:49:25;1.98;;;1.60;;
26696;SDS011;14312;52.614;13.496;2023-07-13T05:52:11;1.58;;;1.48;;
26696;SDS011;14312;52.614;13.496;2023-07-13T05:54:57;2.17;;;1.80;;
26696;SDS011;14312;52.614;13.496;2023-07-13T05:57:43;1.50;;;1.40;;
26696;SDS011;14312;52.614;13.496;2023-07-13T06:00:29;1.67;;;1.58;;
26696;SDS011;14312;52.614;13.496;2023-07-13T06:03:15;1.65;;;1.55;;
26696;SDS011;14312;52.614;13.496;2023-07-13T06:06:01;1.85;;;1.60;;
26696;SDS011;14312;52.614;13.496;2023-07-13T06:08:47;2.97;;;1.50;;
26696;SDS011;14312;52.614;13.496;2023-07-13T06:11:33;1.63;;;1.52;;
26696;SDS011;14312;52.614;13.496;2023-07-13T06:14:20;1.40;;;1.27;;
26696;SDS011;14312;52.614;13.496;2023-07-13T06:17:07;2.55;;;1.40;;
26696;SDS011;14312;52.614;13.496;2023-07-13T06:19:53;1.48;;;1.38;;
26696;SDS011;14312;52.614;13.496;2023-07-13T06:22:39;1.60;;;1.50;;
26696;SDS011;14312;52.614;13.496;2023-07-13T06:25:25;1.48;;;1.38;;
26696;SDS011;14312;52.614;13.496;2023-07-13T06:28:12;2.85;;;1.50;;
26696;SDS011;14312;52.614;13.496;2023-07-13T06:30:58;1.55;;;1.45;;
26696;SDS011;14312;52.614;13.496;2023-07-13T06:33:45;1.95;;;1.75;;
26696;SDS011;14312;52.614;13.496;2023-07-13T06:36:31;2.58;;;1.58;;
26696;SDS011;14312;52.614;13.496;2023-07-13T06:39:17;1.42;;;1.30;;
26696;SDS011;14312;52.614;13.496;2023-07-13T06:42:05;1.50;;;1.40;;
26696;SDS011;14312;52.614;13.496;2023-07-13T06:44:52;2.03;;;1.30;;
26696;SDS011;14312;52.614;13.496;2023-07-13T06:47:38;1.23;;;1.13;;
26696;SDS011;14312;52.614;13.496;2023-07-13T06:50:24;1.27;;;1.17;;
26696;SDS011;14312;52.614;13.496;2023-07-13T06:53:10;1.42;;;1.30;;
26696;SDS011;14312;52.614;13.496;2023-07-13T06:55:57;1.33;;;1.23;;
26696;SDS011;14312;52.614;13.496;2023-07-13T06:58:43;1.73;;;1.42;;
26696;SDS011;14312;52.614;13.496;2023-07-13T07:01:29;2.25;;;1.60;;
26696;SDS011;14312;52.614;13.496;2023-07-13T07:04:15;1.85;;;1.50;;
26696;SDS011;14312;52.614;13.496;2023-07-13T07:07:01;1.80;;;1.30;;
26696;SDS011;14312;52.614;13.496;2023-07-13T07:09:47;2.10;;;1.63;;
26696;SDS011;14312;52.614;13.496;2023-07-13T07:12:33;2.60;;;1.48;;
26696;SDS011;14312;52.614;13.496;2023-07-13T07:15:19;2.35;;;1.60;;
26696;SDS011;14312;52.614;13.496;2023-07-13T07:18:05;1.63;;;1.48;;
26696;SDS011;14312;52.614;13.496;2023-07-13T07:20:51;1.67;;;1.23;;
26696;SDS011;14312;52.614;13.496;2023-07-13T07:23:37;1.30;;;1.10;;
26696;SDS011;14312;52.614;13.496;2023-07-13T07:26:23;1.20;;;1.10;;
26696;SDS011;14312;52.614;13.496;2023-07-13T07:29:10;1.40;;;1.23;;
26696;SDS011;14312;52.614;13.496;2023-07-13T07:31:56;1.00;;;1.00;;
26696;SDS011;14312;52.614;13.496;2023-07-13T07:34:43;1.23;;;1.10;;
26696;SDS011;14312;52.614;13.496;2023-07-13T07:37:29;1.20;;;1.10;;
26696;SDS011;14312;52.614;13.496;2023-07-13T07:40:15;2.67;;;1.00;;
26696;SDS011;14312;52.614;13.496;2023-07-13T07:43:01;1.17;;;1.08;;
26696;SDS011;14312;52.614;13.496;2023-07-13T07:45:47;1.15;;;0.98;;
26696;SDS011;14312;52.614;13.496;2023-07-13T07:48:33;0.90;;;0.90;;
26696;SDS011;14312;52.614;13.496;2023-07-13T07:51:19;1.20;;;1.00;;
26696;SDS011;14312;52.614;13.496;2023-07-13T07:54:05;1.58;;;1.20;;
26696;SDS011;14312;52.614;13.496;2023-07-13T07:56:51;1.42;;;1.10;;
26696;SDS011;14312;52.614;13.496;2023-07-13T07:59:38;1.25;;;1.00;;
26696;SDS011;14312;52.614;13.496;2023-07-13T08:02:27;1.45;;;1.27;;
26696;SDS011;14312;52.614;13.496;2023-07-13T08:05:12;1.48;;;1.15;;
26696;SDS011;14312;52.614;13.496;2023-07-13T08:07:58;0.90;;;0.90;;
26696;SDS011;14312;52.614;13.496;2023-07-13T08:10:44;1.45;;;1.00;;
26696;SDS011;14312;52.614;13.496;2023-07-13T08:13:30;1.13;;;1.02;;
26696;SDS011;14312;52.614;13.496;2023-07-13T08:16:16;1.17;;;0.95;;
26696;SDS011;14312;52.614;13.496;2023-07-13T08:19:02;1.02;;;0.88;;
26696;SDS011;14312;52.614;13.496;2023-07-13T08:21:48;1.33;;;1.00;;
26696;SDS011;14312;52.614;13.496;2023-07-13T08:24:34;1.52;;;1.00;;
26696;SDS011;14312;52.614;13.496;2023-07-13T08:27:20;0.82;;;0.82;;
26696;SDS011;14312;52.614;13.496;2023-07-13T08:30:07;0.70;;;0.70;;
26696;SDS011;14312;52.614;13.496;2023-07-13T08:32:53;1.25;;;0.90;;
26696;SDS011;14312;52.614;13.496;2023-07-13T08:35:39;0.95;;;0.95;;
26696;SDS011;14312;52.614;13.496;2023-07-13T08:38:25;1.88;;;1.00;;
26696;SDS011;14312;52.614;13.496;2023-07-13T08:41:15;1.10;;;1.00;;
26696;SDS011;14312;52.614;13.496;2023-07-13T08:44:03;1.30;;;0.82;;
26696;SDS011;14312;52.614;13.496;2023-07-13T08:46:51;1.02;;;0.93;;
26696;SDS011;14312;52.614;13.496;2023-07-13T08:49:41;1.50;;;0.90;;
26696;SDS011;14312;52.614;13.496;2023-07-13T08:52:34;1.02;;;1.00;;
26696;SDS011;14312;52.614;13.496;2023-07-13T08:55:27;1.50;;;1.10;;
26696;SDS011;14312;52.614;13.496;2023-07-13T08:58:21;1.20;;;1.10;;
26696;SDS011;14312;52.614;13.496;2023-07-13T09:04:29;2.08;;;1.08;;
26696;SDS011;14312;52.614;13.496;2023-07-13T09:10:32;2.67;;;1.08;;
26696;SDS011;14312;52.614;13.496;2023-07-13T09:13:42;1.27;;;1.00;;
26696;SDS011;14312;52.614;13.496;2023-07-13T09:16:35;1.08;;;0.95;;
26696;SDS011;14312;52.614;13.496;2023-07-13T09:19:28;1.58;;;1.17;;
26696;SDS011;14312;52.614;13.496;2023-07-13T09:22:19;1.77;;;1.00;;
26696;SDS011;14312;52.614;13.496;2023-07-13T09:25:24;0.98;;;0.95;;
26696;SDS011;14312;52.614;13.496;2023-07-13T09:28:15;1.67;;;1.25;;
26696;SDS011;14312;52.614;13.496;2023-07-13T09:31:14;2.65;;;1.10;;
26696;SDS011;14312;52.614;13.496;2023-07-13T09:34:11;1.73;;;1.50;;
26696;SDS011;14312;52.614;13.496;2023-07-13T09:36:58;2.35;;;1.40;;
26696;SDS011;14312;52.614;13.496;2023-07-13T09:39:44;1.38;;;1.27;;
26696;SDS011;14312;52.614;13.496;2023-07-13T09:42:30;1.55;;;1.30;;
26696;SDS011;14312;52.614;13.496;2023-07-13T09:45:26;1.92;;;1.08;;
26696;SDS011;14312;52.614;13.496;2023-07-13T09:48:14;2.60;;;1.25;;
26696;SDS011;14312;52.614;13.496;2023-07-13T09:51:14;1.42;;;1.25;;
26696;SDS011;14312;52.614;13.496;2023-07-13T09:54:00;1.38;;;1.27;;
26696;SDS011;14312;52.614;13.496;2023-07-13T09:56:48;2.22;;;1.48;;
26696;SDS011;14312;52.614;13.496;2023-07-13T09:59:40;1.77;;;1.35;;
26696;SDS011;14312;52.614;13.496;2023-07-13T10:02:33;1.23;;;1.13;;
26696;SDS011;14312;52.614;13.496;2023-07-13T10:05:20;1.88;;;1.30;;
26696;SDS011;14312;52.614;13.496;2023-07-13T10:08:43;2.53;;;1.60;;
26696;SDS011;14312;52.614;13.496;2023-07-13T10:11:24;4.45;;;1.90;;
26696;SDS011;14312;52.614;13.496;2023-07-13T10:14:16;1.50;;;1.40;;
26696;SDS011;14312;52.614;13.496;2023-07-13T10:17:03;1.70;;;1.52;;
26696;SDS011;14312;52.614;13.496;2023-07-13T10:19:51;3.92;;;1.80;;
26696;SDS011;14312;52.614;13.496;2023-07-13T10:22:58;2.45;;;1.52;;
26696;SDS011;14312;52.614;13.496;2023-07-13T10:25:47;1.63;;;1.52;;
26696;SDS011;14312;52.614;13.496;2023-07-13T10:28:35;1.23;;;1.13;;
26696;SDS011;14312;52.614;13.496;2023-07-13T10:31:23;1.65;;;1.17;;
26696;SDS011;14312;52.614;13.496;2023-07-13T10:34:10;1.67;;;1.30;;
26696;SDS011;14312;52.614;13.496;2023-07-13T10:36:58;1.48;;;1.33;;
26696;SDS011;14312;52.614;13.496;2023-07-13T10:39:45;2.22;;;1.33;;
26696;SDS011;14312;52.614;13.496;2023-07-13T10:42:38;1.75;;;1.27;;
26696;SDS011;14312;52.614;13.496;2023-07-13T10:45:27;1.40;;;1.30;;
26696;SDS011;14312;52.614;13.496;2023-07-13T10:48:16;3.03;;;1.60;;
26696;SDS011;14312;52.614;13.496;2023-07-13T10:51:04;2.70;;;1.60;;
26696;SDS011;14312;52.614;13.496;2023-07-13T10:54:37;1.27;;;1.17;;
26696;SDS011;14312;52.614;13.496;2023-07-13T11:03:03;1.50;;;1.40;;
26696;SDS011;14312;52.614;13.496;2023-07-13T11:05:50;1.48;;;1.20;;
26696;SDS011;14312;52.614;13.496;2023-07-13T11:11:37;1.70;;;1.60;;
26696;SDS011;14312;52.614;13.496;2023-07-13T11:23:18;1.95;;;1.70;;
26696;SDS011;14312;52.614;13.496;2023-07-13T11:32:23;2.25;;;1.60;;
26696;SDS011;14312;52.614;13.496;2023-07-13T11:35:18;3.08;;;1.70;;
26696;SDS011;14312;52.614;13.496;2023-07-13T11:38:16;1.90;;;1.67;;
26696;SDS011;14312;52.614;13.496;2023-07-13T11:41:06;1.98;;;1.63;;
26696;SDS011;14312;52.614;13.496;2023-07-13T11:44:41;1.48;;;1.38;;
26696;SDS011;14312;52.614;13.496;2023-07-13T11:47:21;2.08;;;1.45;;
26696;SDS011;14312;52.614;13.496;2023-07-13T11:50:16;1.65;;;1.50;;
26696;SDS011;14312;52.614;13.496;2023-07-13T11:53:04;2.78;;;1.88;;
26696;SDS011;14312;52.614;13.496;2023-07-13T11:55:50;1.67;;;1.58;;
26696;SDS011;14312;52.614;13.496;2023-07-13T11:58:36;1.75;;;1.50;;
26696;SDS011;14312;52.614;13.496;2023-07-13T12:01:29;1.80;;;1.70;;
26696;SDS011;14312;52.614;13.496;2023-07-13T12:04:28;2.47;;;1.90;;
26696;SDS011;14312;52.614;13.496;2023-07-13T12:07:18;2.65;;;1.50;;
26696;SDS011;14312;52.614;13.496;2023-07-13T12:12:55;2.58;;;1.63;;
26696;SDS011;14312;52.614;13.496;2023-07-13T12:15:44;2.03;;;1.73;;
26696;SDS011;14312;52.614;13.496;2023-07-13T12:18:32;1.58;;;1.48;;
26696;SDS011;14312;52.614;13.496;2023-07-13T12:21:19;2.05;;;1.75;;
26696;SDS011;14312;52.614;13.496;2023-07-13T12:24:15;2.65;;;1.50;;
26696;SDS011;14312;52.614;13.496;2023-07-13T12:27:03;2.22;;;1.55;;
26696;SDS011;14312;52.614;13.496;2023-07-13T12:30:01;1.63;;;1.52;;
26696;SDS011;14312;52.614;13.496;2023-07-13T12:33:01;1.50;;;1.40;;
26696;SDS011;14312;52.614;13.496;2023-07-13T12:35:54;2.80;;;1.75;;
26696;SDS011;14312;52.614;13.496;2023-07-13T12:38:41;3.25;;;1.45;;
26696;SDS011;14312;52.614;13.496;2023-07-13T12:41:32;1.50;;;1.40;;
26696;SDS011;14312;52.614;13.496;2023-07-13T12:44:22;1.90;;;1.52;;
26696;SDS011;14312;52.614;13.496;2023-07-13T12:47:13;1.75;;;1.60;;
26696;SDS011;14312;52.614;13.496;2023-07-13T12:50:02;1.52;;;1.40;;
26696;SDS011;14312;52.614;13.496;2023-07-13T12:52:52;1.85;;;1.58;;
26696;SDS011;14312;52.614;13.496;2023-07-13T12:55:41;2.28;;;1.83;;
26696;SDS011;14312;52.614;13.496;2023-07-13T12:58:31;1.90;;;1.70;;
26696;SDS011;14312;52.614;13.496;2023-07-13T13:01:22;1.40;;;1.30;;
26696;SDS011;14312;52.614;13.496;2023-07-13T13:04:12;1.50;;;1.40;;
26696;SDS011;14312;52.614;13.496;2023-07-13T13:07:03;2.20;;;1.50;;
26696;SDS011;14312;52.614;13.496;2023-07-13T13:09:51;1.38;;;1.20;;
26696;SDS011;14312;52.614;13.496;2023-07-13T13:12:39;2.03;;;1.60;;
26696;SDS011;14312;52.614;13.496;2023-07-13T13:15:27;2.03;;;1.80;;
26696;SDS011;14312;52.614;13.496;2023-07-13T13:18:23;1.75;;;1.50;;
26696;SDS011;14312;52.614;13.496;2023-07-13T13:21:10;1.70;;;1.48;;
26696;SDS011;14312;52.614;13.496;2023-07-13T13:23:56;1.83;;;1.40;;
26696;SDS011;14312;52.614;13.496;2023-07-13T13:26:43;1.73;;;1.50;;
26696;SDS011;14312;52.614;13.496;2023-07-13T13:29:31;1.55;;;1.42;;
26696;SDS011;14312;52.614;13.496;2023-07-13T13:32:17;1.92;;;1.55;;
26696;SDS011;14312;52.614;13.496;2023-07-13T13:35:04;1.50;;;1.40;;
26696;SDS011;14312;52.614;13.496;2023-07-13T13:37:51;2.22;;;1.50;;
26696;SDS011;14312;52.614;13.496;2023-07-13T13:40:38;1.35;;;1.25;;
26696;SDS011;14312;52.614;13.496;2023-07-13T13:43:25;2.22;;;1.55;;
26696;SDS011;14312;52.614;13.496;2023-07-13T13:46:16;2.17;;;1.60;;
26696;SDS011;14312;52.614;13.496;2023-07-13T13:49:11;2.80;;;1.65;;
26696;SDS011;14312;52.614;13.496;2023-07-13T13:52:00;1.60;;;1.30;;
26696;SDS011;14312;52.614;13.496;2023-07-13T13:54:46;1.42;;;1.33;;
26696;SDS011;14312;52.614;13.496;2023-07-13T13:57:32;1.80;;;1.65;;
26696;SDS011;14312;52.614;13.496;2023-07-13T14:00:20;1.88;;;1.50;;
26696;SDS011;14312;52.614;13.496;2023-07-13T14:03:08;2.72;;;1.58;;
26696;SDS011;14312;52.614;13.496;2023-07-13T14:06:02;2.05;;;1.35;;
26696;SDS011;14312;52.614;13.496;2023-07-13T14:08:48;1.55;;;1.30;;
26696;SDS011;14312;52.614;13.496;2023-07-13T14:11:34;1.90;;;1.60;;
26696;SDS011;14312;52.614;13.496;2023-07-13T14:14:22;1.30;;;1.20;;
26696;SDS011;14312;52.614;13.496;2023-07-13T14:17:19;2.90;;;1.42;;
26696;SDS011;14312;52.614;13.496;2023-07-13T14:20:10;1.50;;;1.10;;
26696;SDS011;14312;52.614;13.496;2023-07-13T14:22:57;2.33;;;1.30;;
26696;SDS011;14312;52.614;13.496;2023-07-13T14:25:43;2.05;;;1.20;;
26696;SDS011;14312;52.614;13.496;2023-07-13T14:28:30;1.58;;;1.20;;
26696;SDS011;14312;52.614;13.496;2023-07-13T14:31:16;1.30;;;1.20;;
26696;SDS011;14312;52.614;13.496;2023-07-13T14:34:03;1.33;;;1.20;;
26696;SDS011;14312;52.614;13.496;2023-07-13T14:36:49;1.75;;;1.10;;
26696;SDS011;14312;52.614;13.496;2023-07-13T14:39:36;1.98;;;1.40;;
26696;SDS011;14312;52.614;13.496;2023-07-13T14:42:22;1.85;;;1.40;;
26696;SDS011;14312;52.614;13.496;2023-07-13T14:45:17;1.70;;;1.23;;
26696;SDS011;14312;52.614;13.496;2023-07-13T14:48:09;2.25;;;1.30;;
26696;SDS011;14312;52.614;13.496;2023-07-13T14:51:18;1.48;;;1.38;;
26696;SDS011;14312;52.614;13.496;2023-07-13T14:54:05;1.30;;;1.20;;
26696;SDS011;14312;52.614;13.496;2023-07-13T14:56:51;1.63;;;1.20;;
26696;SDS011;14312;52.614;13.496;2023-07-13T14:59:37;1.58;;;1.42;;
26696;SDS011;14312;52.614;13.496;2023-07-13T15:02:26;1.20;;;1.10;;
26696;SDS011;14312;52.614;13.496;2023-07-13T15:05:16;1.27;;;1.08;;
26696;SDS011;14312;52.614;13.496;2023-07-13T15:08:04;1.27;;;1.02;;
26696;SDS011;14312;52.614;13.496;2023-07-13T15:10:50;1.50;;;1.23;;
26696;SDS011;14312;52.614;13.496;2023-07-13T15:13:36;1.20;;;1.10;;
26696;SDS011;14312;52.614;13.496;2023-07-13T15:16:23;1.20;;;1.10;;
26696;SDS011;14312;52.614;13.496;2023-07-13T15:19:11;1.48;;;1.10;;
26696;SDS011;14312;52.614;13.496;2023-07-13T15:21:57;1.20;;;1.10;;
26696;SDS011;14312;52.614;13.496;2023-07-13T15:24:43;1.30;;;1.20;;
26696;SDS011;14312;52.614;13.496;2023-07-13T15:27:29;1.02;;;1.00;;
26696;SDS011;14312;52.614;13.496;2023-07-13T15:30:15;1.67;;;1.20;;
26696;SDS011;14312;52.614;13.496;2023-07-13T15:33:05;1.10;;;1.02;;
26696;SDS011;14312;52.614;13.496;2023-07-13T15:36:00;1.38;;;1.27;;
26696;SDS011;14312;52.614;13.496;2023-07-13T15:38:47;1.42;;;0.90;;
26696;SDS011;14312;52.614;13.496;2023-07-13T15:41:34;1.27;;;1.17;;
26696;SDS011;14312;52.614;13.496;2023-07-13T15:47:12;2.35;;;1.20;;
26696;SDS011;14312;52.614;13.496;2023-07-13T15:49:59;1.45;;;1.05;;
26696;SDS011;14312;52.614;13.496;2023-07-13T15:52:47;1.02;;;1.00;;
26696;SDS011;14312;52.614;13.496;2023-07-13T15:55:37;1.92;;;1.27;;
26696;SDS011;14312;52.614;13.496;2023-07-13T15:58:25;1.05;;;0.90;;
26696;SDS011;14312;52.614;13.496;2023-07-13T16:01:14;1.00;;;0.85;;
26696;SDS011;14312;52.614;13.496;2023-07-13T16:04:00;1.45;;;1.17;;
26696;SDS011;14312;52.614;13.496;2023-07-13T16:06:46;1.20;;;1.00;;
26696;SDS011;14312;52.614;13.496;2023-07-13T16:09:32;1.00;;;1.00;;
26696;SDS011;14312;52.614;13.496;2023-07-13T16:12:18;1.58;;;0.90;;
26696;SDS011;14312;52.614;13.496;2023-07-13T16:15:08;0.90;;;0.90;;
26696;SDS011;14312;52.614;13.496;2023-07-13T16:17:58;1.17;;;1.10;;
26696;SDS011;14312;52.614;13.496;2023-07-13T16:20:47;1.52;;;1.08;;
26696;SDS011;14312;52.614;13.496;2023-07-13T16:23:34;1.85;;;1.17;;
26696;SDS011;14312;52.614;13.496;2023-07-13T16:29:28;1.13;;;1.02;;
26696;SDS011;14312;52.614;13.496;2023-07-13T16:32:15;0.75;;;0.75;;
26696;SDS011;14312;52.614;13.496;2023-07-13T16:35:01;1.10;;;1.00;;
26696;SDS011;14312;52.614;13.496;2023-07-13T16:37:47;1.35;;;1.20;;
26696;SDS011;14312;52.614;13.496;2023-07-13T16:40:34;1.38;;;0.98;;
26696;SDS011;14312;52.614;13.496;2023-07-13T16:43:20;1.45;;;1.00;;
26696;SDS011;14312;52.614;13.496;2023-07-13T16:46:07;0.90;;;0.90;;
26696;SDS011;14312;52.614;13.496;2023-07-13T16:48:56;1.25;;;1.10;;
26696;SDS011;14312;52.614;13.496;2023-07-13T16:51:44;2.50;;;1.13;;
26696;SDS011;14312;52.614;13.496;2023-07-13T16:54:31;1.83;;;1.08;;
26696;SDS011;14312;52.614;13.496;2023-07-13T16:57:21;1.20;;;1.10;;
26696;SDS011;14312;52.614;13.496;2023-07-13T17:00:21;1.20;;;1.10;;
26696;SDS011;14312;52.614;13.496;2023-07-13T17:03:12;1.10;;;0.90;;
26696;SDS011;14312;52.614;13.496;2023-07-13T17:05:58;1.50;;;1.27;;
26696;SDS011;14312;52.614;13.496;2023-07-13T17:08:48;1.88;;;1.02;;
26696;SDS011;14312;52.614;13.496;2023-07-13T17:11:39;3.38;;;1.55;;
26696;SDS011;14312;52.614;13.496;2023-07-13T17:14:26;1.92;;;1.20;;
26696;SDS011;14312;52.614;13.496;2023-07-13T17:17:21;4.05;;;1.60;;